sensor_id;sensor_type;location;lat;lon;timestamp;pressure;altitude;pressure_sealevel;temperature;humidity
3434;BME280;1730;41.932;25.548;2023-12-20T00:01:32;101015.81;;;1.18;100.00
3434;BME280;1730;41.932;25.548;2023-12-20T00:03:58;101016.50;;;1.23;100.00
3434;BME280;1730;41.932;25.548;2023-12-20T00:06:23;101030.09;;;1.40;100.00
3434;BME280;1730;41.932;25.548;2023-12-20T00:08:49;101034.19;;;1.49;100.00
3434;BME280;1730;41.932;25.548;2023-12-20T00:11:15;101013.97;;;1.45;100.00
3434;BME280;1730;41.932;25.548;2023-12-20T00:13:40;100983.66;;;1.25;100.00
3434;BME280;1730;41.932;25.548;2023-12-20T00:16:05;100800.53;;;0.26;100.00
3434;BME280;1730;41.932;25.548;2023-12-20T00:18:31;100947.62;;;1.18;100.00
3434;BME280;1730;41.932;25.548;2023-12-20T00:20:56;100946.31;;;1.30;100.00
3434;BME280;1730;41.932;25.548;2023-12-20T00:23:22;100977.88;;;1.62;100.00
3434;BME280;1730;41.932;25.548;2023-12-20T00:25:48;100969.47;;;1.50;100.00
3434;BME280;1730;41.932;25.548;2023-12-20T00:28:14;100936.13;;;1.18;100.00
3434;BME280;1730;41.932;25.548;2023-12-20T00:30:39;100967.50;;;1.31;100.00
3434;BME280;1730;41.932;25.548;2023-12-20T00:33:05;100966.66;;;1.54;100.00
3434;BME280;1730;41.932;25.548;2023-12-20T00:35:30;100773.31;;;0.44;100.00
3434;BME280;1730;41.932;25.548;2023-12-20T00:37:56;100820.03;;;0.73;100.00
3434;BME280;1730;41.932;25.548;2023-12-20T00:40:21;100929.13;;;1.40;100.00
3434;BME280;1730;41.932;25.548;2023-12-20T00:42:47;100846.72;;;0.94;100.00
3434;BME280;1730;41.932;25.548;2023-12-20T00:45:13;100918.41;;;1.42;100.00
3434;BME280;1730;41.932;25.548;2023-12-20T00:47:40;100820.75;;;0.78;100.00
3434;BME280;1730;41.932;25.548;2023-12-20T00:50:06;100952.72;;;1.48;100.00
3434;BME280;1730;41.932;25.548;2023-12-20T00:52:31;100908.69;;;1.41;100.00
3434;BME280;1730;41.932;25.548;2023-12-20T00:54:58;100889.84;;;1.23;100.00
3434;BME280;1730;41.932;25.548;2023-12-20T00:57:23;100750.56;;;0.39;100.00
3434;BME280;1730;41.932;25.548;2023-12-20T00:59:49;100823.28;;;0.81;100.00
3434;BME280;1730;41.932;25.548;2023-12-20T01:02:14;100879.81;;;1.08;100.00
3434;BME280;1730;41.932;25.548;2023-12-20T01:04:40;100859.66;;;1.03;100.00
3434;BME280;1730;41.932;25.548;2023-12-20T01:07:05;100898.34;;;1.33;100.00
3434;BME280;1730;41.932;25.548;2023-12-20T01:09:30;100899.06;;;1.38;100.00
3434;BME280;1730;41.932;25.548;2023-12-20T01:11:56;100824.78;;;0.88;100.00
3434;BME280;1730;41.932;25.548;2023-12-20T01:14:21;100844.16;;;0.92;100.00
3434;BME280;1730;41.932;25.548;2023-12-20T01:16:48;100840.03;;;1.07;100.00
3434;BME280;1730;41.932;25.548;2023-12-20T01:19:14;100822.06;;;0.90;100.00
3434;BME280;1730;41.932;25.548;2023-12-20T01:21:40;100784.72;;;0.48;100.00
3434;BME280;1730;41.932;25.548;2023-12-20T01:24:06;100673.78;;;-0.14;100.00
3434;BME280;1730;41.932;25.548;2023-12-20T01:26:31;100831.88;;;0.65;100.00
3434;BME280;1730;41.932;25.548;2023-12-20T01:28:57;100778.28;;;0.54;100.00
3434;BME280;1730;41.932;25.548;2023-12-20T01:31:22;100791.56;;;0.54;100.00
3434;BME280;1730;41.932;25.548;2023-12-20T01:33:48;100570.09;;;-0.79;100.00
3434;BME280;1730;41.932;25.548;2023-12-20T01:36:13;100783.66;;;0.27;100.00
3434;BME280;1730;41.932;25.548;2023-12-20T01:38:38;100795.03;;;0.31;100.00
3434;BME280;1730;41.932;25.548;2023-12-20T01:41:04;100781.41;;;0.17;100.00
3434;BME280;1730;41.932;25.548;2023-12-20T01:43:30;100802.34;;;0.24;100.00
3434;BME280;1730;41.932;25.548;2023-12-20T01:45:59;100797.88;;;0.26;100.00
3434;BME280;1730;41.932;25.548;2023-12-20T01:48:29;100823.13;;;0.36;100.00
3434;BME280;1730;41.932;25.548;2023-12-20T01:50:59;100830.34;;;0.33;100.00
3434;BME280;1730;41.932;25.548;2023-12-20T01:53:25;100847.34;;;0.52;100.00
3434;BME280;1730;41.932;25.548;2023-12-20T01:55:54;100846.72;;;0.44;100.00
3434;BME280;1730;41.932;25.548;2023-12-20T01:58:20;100850.91;;;0.51;100.00
3434;BME280;1730;41.932;25.548;2023-12-20T02:00:47;100858.72;;;0.56;100.00
3434;BME280;1730;41.932;25.548;2023-12-20T02:03:13;100865.78;;;0.57;100.00
3434;BME280;1730;41.932;25.548;2023-12-20T02:05:40;100763.34;;;0.02;100.00
3434;BME280;1730;41.932;25.548;2023-12-20T02:08:06;100834.00;;;0.54;100.00
3434;BME280;1730;41.932;25.548;2023-12-20T02:10:32;100813.28;;;0.40;100.00
3434;BME280;1730;41.932;25.548;2023-12-20T02:12:58;100810.03;;;0.32;100.00
3434;BME280;1730;41.932;25.548;2023-12-20T02:15:24;100613.59;;;-0.86;100.00
3434;BME280;1730;41.932;25.548;2023-12-20T02:17:50;100572.09;;;-1.12;100.00
3434;BME280;1730;41.932;25.548;2023-12-20T02:20:16;100804.00;;;0.27;100.00
3434;BME280;1730;41.932;25.548;2023-12-20T02:22:42;100810.66;;;0.14;100.00
3434;BME280;1730;41.932;25.548;2023-12-20T02:25:09;100811.88;;;0.30;100.00
3434;BME280;1730;41.932;25.548;2023-12-20T02:27:34;100799.25;;;0.12;100.00
3434;BME280;1730;41.932;25.548;2023-12-20T02:30:00;100799.97;;;0.17;100.00
3434;BME280;1730;41.932;25.548;2023-12-20T02:32:25;100676.56;;;-0.69;100.00
3434;BME280;1730;41.932;25.548;2023-12-20T02:34:51;100666.41;;;-0.83;100.00
3434;BME280;1730;41.932;25.548;2023-12-20T02:37:17;100673.84;;;-0.94;100.00
3434;BME280;1730;41.932;25.548;2023-12-20T02:39:43;100825.34;;;-0.03;100.00
3434;BME280;1730;41.932;25.548;2023-12-20T02:42:08;100815.28;;;-0.18;100.00
3434;BME280;1730;41.932;25.548;2023-12-20T02:44:33;100829.06;;;-0.08;100.00
3434;BME280;1730;41.932;25.548;2023-12-20T02:46:59;100832.50;;;-0.05;100.00
3434;BME280;1730;41.932;25.548;2023-12-20T02:49:24;100819.47;;;-0.12;100.00
3434;BME280;1730;41.932;25.548;2023-12-20T02:51:50;100803.69;;;-0.15;100.00
3434;BME280;1730;41.932;25.548;2023-12-20T02:54:16;100813.56;;;-0.20;100.00
3434;BME280;1730;41.932;25.548;2023-12-20T02:56:42;100406.78;;;-2.59;100.00
3434;BME280;1730;41.932;25.548;2023-12-20T02:59:07;100823.87;;;-0.11;100.00
3434;BME280;1730;41.932;25.548;2023-12-20T03:01:34;100815.47;;;-0.24;100.00
3434;BME280;1730;41.932;25.548;2023-12-20T03:04:00;100821.69;;;-0.26;100.00
3434;BME280;1730;41.932;25.548;2023-12-20T03:06:26;100828.75;;;-0.25;100.00
3434;BME280;1730;41.932;25.548;2023-12-20T03:08:51;100833.97;;;-0.22;100.00
3434;BME280;1730;41.932;25.548;2023-12-20T03:11:17;100850.91;;;0.00;100.00
3434;BME280;1730;41.932;25.548;2023-12-20T03:13:43;100836.50;;;-0.19;100.00
3434;BME280;1730;41.932;25.548;2023-12-20T03:16:12;100798.25;;;-0.38;100.00
3434;BME280;1730;41.932;25.548;2023-12-20T03:18:38;100850.84;;;0.02;100.00
3434;BME280;1730;41.932;25.548;2023-12-20T03:21:05;100842.31;;;-0.08;100.00
3434;BME280;1730;41.932;25.548;2023-12-20T03:23:30;100853.38;;;0.05;100.00
3434;BME280;1730;41.932;25.548;2023-12-20T03:25:58;100760.53;;;-0.45;100.00
3434;BME280;1730;41.932;25.548;2023-12-20T03:28:24;100837.00;;;-0.08;100.00
3434;BME280;1730;41.932;25.548;2023-12-20T03:30:49;100757.31;;;-0.55;100.00
3434;BME280;1730;41.932;25.548;2023-12-20T03:33:15;100834.03;;;0.03;100.00
3434;BME280;1730;41.932;25.548;2023-12-20T03:35:40;100847.16;;;0.06;100.00
3434;BME280;1730;41.932;25.548;2023-12-20T03:38:06;100601.84;;;-1.31;100.00
3434;BME280;1730;41.932;25.548;2023-12-20T03:40:32;100810.59;;;-0.10;100.00
3434;BME280;1730;41.932;25.548;2023-12-20T03:42:57;100807.84;;;-0.08;100.00
3434;BME280;1730;41.932;25.548;2023-12-20T03:45:23;100802.53;;;-0.07;100.00
3434;BME280;1730;41.932;25.548;2023-12-20T03:47:49;100756.03;;;-0.43;100.00
3434;BME280;1730;41.932;25.548;2023-12-20T03:50:16;100742.37;;;-0.57;100.00
3434;BME280;1730;41.932;25.548;2023-12-20T03:52:41;100788.28;;;-0.30;100.00
3434;BME280;1730;41.932;25.548;2023-12-20T03:55:07;100767.75;;;-0.50;100.00
3434;BME280;1730;41.932;25.548;2023-12-20T03:57:33;100801.22;;;-0.21;100.00
3434;BME280;1730;41.932;25.548;2023-12-20T03:59:58;100798.56;;;-0.21;100.00
3434;BME280;1730;41.932;25.548;2023-12-20T04:02:24;100793.53;;;-0.29;100.00
3434;BME280;1730;41.932;25.548;2023-12-20T04:04:50;100740.84;;;-0.64;100.00
3434;BME280;1730;41.932;25.548;2023-12-20T04:07:15;100784.78;;;-0.31;100.00
3434;BME280;1730;41.932;25.548;2023-12-20T04:09:41;100788.25;;;-0.29;100.00
3434;BME280;1730;41.932;25.548;2023-12-20T04:12:07;100789.97;;;-0.28;100.00
3434;BME280;1730;41.932;25.548;2023-12-20T04:14:32;100805.44;;;-0.14;100.00
3434;BME280;1730;41.932;25.548;2023-12-20T04:16:58;100801.66;;;-0.07;100.00
3434;BME280;1730;41.932;25.548;2023-12-20T04:19:23;100802.25;;;0.01;100.00
3434;BME280;1730;41.932;25.548;2023-12-20T04:21:49;100788.97;;;-0.24;100.00
3434;BME280;1730;41.932;25.548;2023-12-20T04:24:14;100592.03;;;-1.28;100.00
3434;BME280;1730;41.932;25.548;2023-12-20T04:26:40;100375.34;;;-2.39;100.00
3434;BME280;1730;41.932;25.548;2023-12-20T04:29:05;100632.31;;;-0.92;100.00
3434;BME280;1730;41.932;25.548;2023-12-20T04:31:31;100749.03;;;-0.18;100.00
3434;BME280;1730;41.932;25.548;2023-12-20T04:33:56;100593.84;;;-1.02;100.00
3434;BME280;1730;41.932;25.548;2023-12-20T04:36:22;100578.41;;;-1.16;100.00
3434;BME280;1730;41.932;25.548;2023-12-20T04:38:48;100737.03;;;-0.29;100.00
3434;BME280;1730;41.932;25.548;2023-12-20T04:41:14;100711.66;;;-0.36;100.00
3434;BME280;1730;41.932;25.548;2023-12-20T04:43:44;100738.34;;;-0.16;100.00
3434;BME280;1730;41.932;25.548;2023-12-20T04:46:12;100721.81;;;-0.23;100.00
3434;BME280;1730;41.932;25.548;2023-12-20T04:48:37;100593.91;;;-1.05;100.00
3434;BME280;1730;41.932;25.548;2023-12-20T04:51:03;100723.28;;;-0.14;100.00
3434;BME280;1730;41.932;25.548;2023-12-20T04:53:30;100773.31;;;-0.05;100.00
3434;BME280;1730;41.932;25.548;2023-12-20T04:55:57;100710.81;;;-0.12;100.00
3434;BME280;1730;41.932;25.548;2023-12-20T04:58:22;100691.47;;;-0.14;100.00
3434;BME280;1730;41.932;25.548;2023-12-20T05:00:49;100558.31;;;-0.95;100.00
3434;BME280;1730;41.932;25.548;2023-12-20T05:03:14;100609.03;;;-0.56;100.00
3434;BME280;1730;41.932;25.548;2023-12-20T05:05:40;100647.09;;;-0.34;100.00
3434;BME280;1730;41.932;25.548;2023-12-20T05:08:05;100653.06;;;-0.27;100.00
3434;BME280;1730;41.932;25.548;2023-12-20T05:10:31;100643.59;;;-0.34;100.00
3434;BME280;1730;41.932;25.548;2023-12-20T05:12:57;100678.63;;;-0.26;100.00
3434;BME280;1730;41.932;25.548;2023-12-20T05:15:22;100655.72;;;-0.27;100.00
3434;BME280;1730;41.932;25.548;2023-12-20T05:17:48;100474.53;;;-1.21;100.00
3434;BME280;1730;41.932;25.548;2023-12-20T05:20:13;100661.66;;;-0.21;100.00
3434;BME280;1730;41.932;25.548;2023-12-20T05:22:38;100625.00;;;-0.33;100.00
3434;BME280;1730;41.932;25.548;2023-12-20T05:25:04;100647.44;;;-0.18;100.00
3434;BME280;1730;41.932;25.548;2023-12-20T05:27:30;100641.03;;;-0.13;100.00
3434;BME280;1730;41.932;25.548;2023-12-20T05:29:55;100470.69;;;-1.12;100.00
3434;BME280;1730;41.932;25.548;2023-12-20T05:32:23;100410.22;;;-1.48;100.00
3434;BME280;1730;41.932;25.548;2023-12-20T05:34:49;100412.53;;;-1.39;100.00
3434;BME280;1730;41.932;25.548;2023-12-20T05:37:14;100624.78;;;-0.27;100.00
3434;BME280;1730;41.932;25.548;2023-12-20T05:39:39;100565.13;;;-0.38;100.00
3434;BME280;1730;41.932;25.548;2023-12-20T05:42:05;100550.94;;;-0.36;100.00
3434;BME280;1730;41.932;25.548;2023-12-20T05:44:31;100459.78;;;-1.03;100.00
3434;BME280;1730;41.932;25.548;2023-12-20T05:46:56;100499.91;;;-0.66;100.00
3434;BME280;1730;41.932;25.548;2023-12-20T05:49:22;100550.34;;;-0.44;100.00
3434;BME280;1730;41.932;25.548;2023-12-20T05:51:47;100523.16;;;-0.49;100.00
3434;BME280;1730;41.932;25.548;2023-12-20T05:54:15;100527.75;;;-0.54;100.00
3434;BME280;1730;41.932;25.548;2023-12-20T05:56:40;100246.16;;;-2.19;100.00
3434;BME280;1730;41.932;25.548;2023-12-20T05:59:06;100151.94;;;-2.68;100.00
3434;BME280;1730;41.932;25.548;2023-12-20T06:01:31;100400.41;;;-1.19;100.00
3434;BME280;1730;41.932;25.548;2023-12-20T06:03:57;100348.34;;;-1.44;100.00
3434;BME280;1730;41.932;25.548;2023-12-20T06:06:23;100531.00;;;-0.23;100.00
3434;BME280;1730;41.932;25.548;2023-12-20T06:08:49;100568.34;;;-0.06;100.00
3434;BME280;1730;41.932;25.548;2023-12-20T06:11:14;100524.72;;;-0.20;100.00
3434;BME280;1730;41.932;25.548;2023-12-20T06:13:41;100505.47;;;-0.25;100.00
3434;BME280;1730;41.932;25.548;2023-12-20T06:16:06;100488.78;;;-0.27;100.00
3434;BME280;1730;41.932;25.548;2023-12-20T06:18:35;100499.09;;;-0.20;100.00
3434;BME280;1730;41.932;25.548;2023-12-20T06:21:02;100252.41;;;-1.47;100.00
3434;BME280;1730;41.932;25.548;2023-12-20T06:23:27;100479.31;;;-0.11;100.00
3434;BME280;1730;41.932;25.548;2023-12-20T06:25:53;100160.28;;;-1.81;100.00
3434;BME280;1730;41.932;25.548;2023-12-20T06:28:19;100485.59;;;0.31;100.00
3434;BME280;1730;41.932;25.548;2023-12-20T06:30:44;100385.97;;;-0.18;100.00
3434;BME280;1730;41.932;25.548;2023-12-20T06:33:11;100471.66;;;0.48;100.00
3434;BME280;1730;41.932;25.548;2023-12-20T06:35:36;100514.47;;;1.23;100.00
3434;BME280;1730;41.932;25.548;2023-12-20T06:38:03;100419.13;;;0.97;100.00
3434;BME280;1730;41.932;25.548;2023-12-20T06:40:28;100448.22;;;1.20;100.00
3434;BME280;1730;41.932;25.548;2023-12-20T06:42:54;100421.59;;;1.21;100.00
3434;BME280;1730;41.932;25.548;2023-12-20T06:45:19;100415.25;;;1.63;100.00
3434;BME280;1730;41.932;25.548;2023-12-20T06:47:45;100371.63;;;1.67;100.00
3434;BME280;1730;41.932;25.548;2023-12-20T06:50:10;100351.16;;;1.13;100.00
3434;BME280;1730;41.932;25.548;2023-12-20T06:52:36;100296.59;;;1.06;100.00
3434;BME280;1730;41.932;25.548;2023-12-20T06:55:03;100144.03;;;0.19;100.00
3434;BME280;1730;41.932;25.548;2023-12-20T06:57:29;99978.09;;;-0.61;100.00
3434;BME280;1730;41.932;25.548;2023-12-20T06:59:55;100280.47;;;1.29;100.00
3434;BME280;1730;41.932;25.548;2023-12-20T07:02:21;100279.69;;;1.27;100.00
3434;BME280;1730;41.932;25.548;2023-12-20T07:04:47;100104.94;;;0.24;100.00
3434;BME280;1730;41.932;25.548;2023-12-20T07:07:13;100278.72;;;1.28;100.00
3434;BME280;1730;41.932;25.548;2023-12-20T07:09:38;100153.38;;;1.03;100.00
3434;BME280;1730;41.932;25.548;2023-12-20T07:12:06;99990.06;;;0.24;100.00
3434;BME280;1730;41.932;25.548;2023-12-20T07:14:32;100073.72;;;1.03;100.00
3434;BME280;1730;41.932;25.548;2023-12-20T07:16:58;100227.25;;;2.35;100.00
3434;BME280;1730;41.932;25.548;2023-12-20T07:19:23;100066.72;;;1.70;100.00
3434;BME280;1730;41.932;25.548;2023-12-20T07:21:49;100168.50;;;2.55;100.00
3434;BME280;1730;41.932;25.548;2023-12-20T07:24:14;100145.53;;;2.70;100.00
3434;BME280;1730;41.932;25.548;2023-12-20T07:26:40;100112.38;;;2.76;100.00
3434;BME280;1730;41.932;25.548;2023-12-20T07:29:05;99923.28;;;2.00;100.00
3434;BME280;1730;41.932;25.548;2023-12-20T07:31:31;99999.63;;;2.61;100.00
3434;BME280;1730;41.932;25.548;2023-12-20T07:33:57;99733.13;;;1.32;100.00
3434;BME280;1730;41.932;25.548;2023-12-20T07:36:23;99995.56;;;3.15;100.00
3434;BME280;1730;41.932;25.548;2023-12-20T07:38:48;99738.84;;;1.71;100.00
3434;BME280;1730;41.932;25.548;2023-12-20T07:41:14;99984.78;;;3.46;100.00
3434;BME280;1730;41.932;25.548;2023-12-20T07:43:41;99962.31;;;3.50;100.00
3434;BME280;1730;41.932;25.548;2023-12-20T07:46:10;99957.53;;;3.70;100.00
3434;BME280;1730;41.932;25.548;2023-12-20T07:48:35;99933.81;;;3.79;100.00
3434;BME280;1730;41.932;25.548;2023-12-20T07:51:02;99914.38;;;3.91;100.00
3434;BME280;1730;41.932;25.548;2023-12-20T07:53:27;99790.84;;;3.64;100.00
3434;BME280;1730;41.932;25.548;2023-12-20T07:55:53;99867.44;;;4.16;100.00
3434;BME280;1730;41.932;25.548;2023-12-20T07:58:18;99830.72;;;4.19;100.00
3434;BME280;1730;41.932;25.548;2023-12-20T08:00:44;99831.34;;;4.49;100.00
3434;BME280;1730;41.932;25.548;2023-12-20T08:03:09;99692.59;;;4.10;100.00
3434;BME280;1730;41.932;25.548;2023-12-20T08:05:35;99777.97;;;4.75;100.00
3434;BME280;1730;41.932;25.548;2023-12-20T08:08:01;99758.00;;;4.80;100.00
3434;BME280;1730;41.932;25.548;2023-12-20T08:10:26;99740.03;;;4.95;100.00
3434;BME280;1730;41.932;25.548;2023-12-20T08:12:56;99528.44;;;4.30;100.00
3434;BME280;1730;41.932;25.548;2023-12-20T08:15:21;99691.56;;;5.49;100.00
3434;BME280;1730;41.932;25.548;2023-12-20T08:17:47;99642.37;;;5.86;100.00
3434;BME280;1730;41.932;25.548;2023-12-20T08:20:12;99618.38;;;6.19;100.00
3434;BME280;1730;41.932;25.548;2023-12-20T08:22:38;99584.19;;;6.01;100.00
3434;BME280;1730;41.932;25.548;2023-12-20T08:25:04;99557.84;;;5.83;100.00
3434;BME280;1730;41.932;25.548;2023-12-20T08:27:29;99524.34;;;5.67;100.00
3434;BME280;1730;41.932;25.548;2023-12-20T08:29:57;99317.47;;;4.55;100.00
3434;BME280;1730;41.932;25.548;2023-12-20T08:32:25;99528.44;;;6.28;100.00
3434;BME280;1730;41.932;25.548;2023-12-20T08:34:51;99510.78;;;6.37;100.00
3434;BME280;1730;41.932;25.548;2023-12-20T08:37:16;99258.53;;;5.14;100.00
3434;BME280;1730;41.932;25.548;2023-12-20T08:39:42;99493.13;;;6.56;100.00
3434;BME280;1730;41.932;25.548;2023-12-20T08:42:09;99467.84;;;6.49;100.00
3434;BME280;1730;41.932;25.548;2023-12-20T08:44:35;99467.63;;;6.73;100.00
3434;BME280;1730;41.932;25.548;2023-12-20T08:47:00;99454.91;;;6.86;100.00
3434;BME280;1730;41.932;25.548;2023-12-20T08:49:26;99447.53;;;7.10;100.00
3434;BME280;1730;41.932;25.548;2023-12-20T08:51:53;99435.41;;;7.16;100.00
3434;BME280;1730;41.932;25.548;2023-12-20T08:54:18;99408.59;;;7.16;100.00
3434;BME280;1730;41.932;25.548;2023-12-20T08:56:45;99341.75;;;7.24;100.00
3434;BME280;1730;41.932;25.548;2023-12-20T08:59:11;99369.66;;;7.72;100.00
3434;BME280;1730;41.932;25.548;2023-12-20T09:01:37;99354.16;;;7.76;100.00
3434;BME280;1730;41.932;25.548;2023-12-20T09:04:03;99338.84;;;8.16;100.00
3434;BME280;1730;41.932;25.548;2023-12-20T09:06:29;99322.91;;;8.34;100.00
3434;BME280;1730;41.932;25.548;2023-12-20T09:08:55;99200.56;;;7.72;100.00
3434;BME280;1730;41.932;25.548;2023-12-20T09:11:20;99285.88;;;8.76;100.00
3434;BME280;1730;41.932;25.548;2023-12-20T09:13:46;99258.09;;;8.95;100.00
3434;BME280;1730;41.932;25.548;2023-12-20T09:16:11;99234.94;;;9.21;100.00
3434;BME280;1730;41.932;25.548;2023-12-20T09:18:38;99071.41;;;8.33;100.00
3434;BME280;1730;41.932;25.548;2023-12-20T09:21:04;99193.53;;;9.32;100.00
3434;BME280;1730;41.932;25.548;2023-12-20T09:23:29;99173.38;;;9.36;100.00
3434;BME280;1730;41.932;25.548;2023-12-20T09:25:55;99154.47;;;9.73;100.00
3434;BME280;1730;41.932;25.548;2023-12-20T09:28:22;99115.44;;;9.41;100.00
3434;BME280;1730;41.932;25.548;2023-12-20T09:30:47;99079.91;;;9.20;100.00
3434;BME280;1730;41.932;25.548;2023-12-20T09:33:13;99116.31;;;9.95;100.00
3434;BME280;1730;41.932;25.548;2023-12-20T09:35:39;99064.50;;;9.83;100.00
3434;BME280;1730;41.932;25.548;2023-12-20T09:38:05;99095.81;;;10.20;100.00
3434;BME280;1730;41.932;25.548;2023-12-20T09:40:32;98975.97;;;9.55;100.00
3434;BME280;1730;41.932;25.548;2023-12-20T09:43:04;99084.19;;;10.19;100.00
3434;BME280;1730;41.932;25.548;2023-12-20T09:45:31;98942.34;;;8.97;100.00
3434;BME280;1730;41.932;25.548;2023-12-20T09:47:57;99084.38;;;9.47;100.00
3434;BME280;1730;41.932;25.548;2023-12-20T09:50:23;99081.22;;;9.87;100.00
3434;BME280;1730;41.932;25.548;2023-12-20T09:52:51;99085.78;;;9.06;100.00
3434;BME280;1730;41.932;25.548;2023-12-20T09:55:18;99088.72;;;9.30;100.00
3434;BME280;1730;41.932;25.548;2023-12-20T09:57:45;99082.31;;;9.76;100.00
3434;BME280;1730;41.932;25.548;2023-12-20T10:00:12;99059.06;;;9.58;100.00
3434;BME280;1730;41.932;25.548;2023-12-20T10:02:42;98932.56;;;8.34;100.00
3434;BME280;1730;41.932;25.548;2023-12-20T10:05:16;98824.63;;;8.03;100.00
3434;BME280;1730;41.932;25.548;2023-12-20T10:07:41;99082.88;;;9.88;100.00
3434;BME280;1730;41.932;25.548;2023-12-20T10:10:07;98958.69;;;9.22;100.00
3434;BME280;1730;41.932;25.548;2023-12-20T10:12:34;99012.94;;;9.52;100.00
3434;BME280;1730;41.932;25.548;2023-12-20T10:14:59;99065.66;;;9.99;100.00
3434;BME280;1730;41.932;25.548;2023-12-20T10:17:27;99054.09;;;9.45;100.00
3434;BME280;1730;41.932;25.548;2023-12-20T10:19:54;99063.16;;;9.62;100.00
3434;BME280;1730;41.932;25.548;2023-12-20T10:22:19;99057.72;;;9.97;100.00
3434;BME280;1730;41.932;25.548;2023-12-20T10:24:45;98998.94;;;9.67;100.00
3434;BME280;1730;41.932;25.548;2023-12-20T10:27:12;99042.69;;;9.69;100.00
3434;BME280;1730;41.932;25.548;2023-12-20T10:29:38;98933.84;;;9.45;100.00
3434;BME280;1730;41.932;25.548;2023-12-20T10:32:25;99009.38;;;9.70;100.00
3434;BME280;1730;41.932;25.548;2023-12-20T10:34:51;99012.41;;;9.92;100.00
3434;BME280;1730;41.932;25.548;2023-12-20T10:37:17;98976.84;;;10.15;100.00
3434;BME280;1730;41.932;25.548;2023-12-20T10:39:43;98993.78;;;9.99;100.00
3434;BME280;1730;41.932;25.548;2023-12-20T10:42:11;98944.66;;;9.79;100.00
3434;BME280;1730;41.932;25.548;2023-12-20T10:44:37;98974.03;;;10.16;100.00
3434;BME280;1730;41.932;25.548;2023-12-20T10:47:04;98539.94;;;6.98;100.00
3434;BME280;1730;41.932;25.548;2023-12-20T10:49:31;98993.75;;;9.30;100.00
3434;BME280;1730;41.932;25.548;2023-12-20T10:52:02;98988.81;;;9.43;100.00
3434;BME280;1730;41.932;25.548;2023-12-20T10:54:29;98979.13;;;9.32;100.00
3434;BME280;1730;41.932;25.548;2023-12-20T10:56:57;98997.88;;;9.42;100.00
3434;BME280;1730;41.932;25.548;2023-12-20T10:59:23;98975.56;;;9.93;100.00
3434;BME280;1730;41.932;25.548;2023-12-20T11:01:50;98953.75;;;9.78;100.00
3434;BME280;1730;41.932;25.548;2023-12-20T11:04:28;98897.00;;;9.46;100.00
3434;BME280;1730;41.932;25.548;2023-12-20T11:07:06;98955.66;;;9.86;100.00
3434;BME280;1730;41.932;25.548;2023-12-20T11:09:36;98896.31;;;9.44;100.00
3434;BME280;1730;41.932;25.548;2023-12-20T11:17:10;98847.03;;;9.69;100.00
3434;BME280;1730;41.932;25.548;2023-12-20T11:22:24;98948.63;;;10.53;100.00
3434;BME280;1730;41.932;25.548;2023-12-20T11:24:51;98915.62;;;9.91;100.00
3434;BME280;1730;41.932;25.548;2023-12-20T11:27:18;98920.84;;;9.92;100.00
3434;BME280;1730;41.932;25.548;2023-12-20T11:29:54;98919.41;;;10.06;100.00
3434;BME280;1730;41.932;25.548;2023-12-20T11:37:54;98932.97;;;9.96;100.00
3434;BME280;1730;41.932;25.548;2023-12-20T11:40:23;98919.06;;;10.09;100.00
3434;BME280;1730;41.932;25.548;2023-12-20T11:42:51;98869.28;;;9.54;100.00
3434;BME280;1730;41.932;25.548;2023-12-20T11:45:24;98924.13;;;10.04;100.00
3434;BME280;1730;41.932;25.548;2023-12-20T11:47:51;98920.63;;;10.12;100.00
3434;BME280;1730;41.932;25.548;2023-12-20T11:50:17;98907.28;;;10.10;100.00
3434;BME280;1730;41.932;25.548;2023-12-20T11:52:43;98917.59;;;10.15;100.00
3434;BME280;1730;41.932;25.548;2023-12-20T11:55:09;98891.53;;;9.89;100.00
3434;BME280;1730;41.932;25.548;2023-12-20T11:57:36;98915.09;;;9.87;100.00
3434;BME280;1730;41.932;25.548;2023-12-20T12:00:05;98906.41;;;10.02;100.00
3434;BME280;1730;41.932;25.548;2023-12-20T12:02:31;98893.22;;;10.16;100.00
3434;BME280;1730;41.932;25.548;2023-12-20T12:04:57;98830.13;;;9.93;100.00
3434;BME280;1730;41.932;25.548;2023-12-20T12:07:24;98848.16;;;10.01;100.00
3434;BME280;1730;41.932;25.548;2023-12-20T12:09:49;98887.84;;;10.16;100.00
3434;BME280;1730;41.932;25.548;2023-12-20T12:12:16;98883.06;;;10.10;100.00
3434;BME280;1730;41.932;25.548;2023-12-20T12:14:41;98837.44;;;10.09;100.00
3434;BME280;1730;41.932;25.548;2023-12-20T12:17:14;98731.13;;;9.37;100.00
3434;BME280;1730;41.932;25.548;2023-12-20T12:19:40;98756.53;;;9.76;100.00
3434;BME280;1730;41.932;25.548;2023-12-20T12:24:38;98871.78;;;10.15;100.00
3434;BME280;1730;41.932;25.548;2023-12-20T12:27:06;98856.97;;;10.77;100.00
3434;BME280;1730;41.932;25.548;2023-12-20T12:29:32;98818.72;;;10.57;100.00
3434;BME280;1730;41.932;25.548;2023-12-20T12:31:59;98817.31;;;10.37;100.00
3434;BME280;1730;41.932;25.548;2023-12-20T12:34:27;98814.75;;;9.77;100.00
3434;BME280;1730;41.932;25.548;2023-12-20T12:36:53;98844.88;;;9.81;100.00
3434;BME280;1730;41.932;25.548;2023-12-20T12:39:18;98804.50;;;9.81;100.00
3434;BME280;1730;41.932;25.548;2023-12-20T12:41:44;98850.03;;;10.00;100.00
3434;BME280;1730;41.932;25.548;2023-12-20T12:44:10;98856.03;;;10.28;100.00
3434;BME280;1730;41.932;25.548;2023-12-20T12:46:43;98847.63;;;9.89;100.00
3434;BME280;1730;41.932;25.548;2023-12-20T12:49:09;98846.97;;;9.95;100.00
3434;BME280;1730;41.932;25.548;2023-12-20T12:51:35;98847.19;;;10.10;100.00
3434;BME280;1730;41.932;25.548;2023-12-20T12:54:00;98848.63;;;9.88;100.00
3434;BME280;1730;41.932;25.548;2023-12-20T12:56:26;98841.50;;;9.79;100.00
3434;BME280;1730;41.932;25.548;2023-12-20T12:58:51;98859.84;;;9.75;100.00
3434;BME280;1730;41.932;25.548;2023-12-20T13:01:17;98871.72;;;9.65;100.00
3434;BME280;1730;41.932;25.548;2023-12-20T13:03:42;98871.03;;;9.63;100.00
3434;BME280;1730;41.932;25.548;2023-12-20T13:06:08;98880.69;;;9.73;100.00
3434;BME280;1730;41.932;25.548;2023-12-20T13:08:34;98893.19;;;9.57;100.00
3434;BME280;1730;41.932;25.548;2023-12-20T13:11:00;98859.28;;;9.38;100.00